CheckWX is a tool to help pilots better visualize weather data.  It is not intended as a substitute for an official pre-flight weather briefing.

21:36:32 UTC

OEWD TAF
Wadi Al Dawasir Airport
Saudi Arabia
TAF OEWD 201100Z 2012/2118 14010G20KT 7000 NSC TEMPO 2012/2018 3000 DU BLDU

Mar-20@
12:00 UTC

Mar-20 @ 12:00 UTC

Mar-21@
18:00 UTC

Mar-21 @ 18:00 UTC

TAF OEWD 201100Z 2012/2118 14010G20KT 7000 NSC
Wind
  • 140° at 10 KTS
  • {Gusting to 20 KTS
Cloud Levels
  • No significant clouds

Mar-20@
12:00 UTC

Mar-20 @ 12:00 UTC

Mar-20@
18:00 UTC

Mar-20 @ 18:00 UTC

TEMPO 2012/2018 3000 DU BLDU

Expired

Conditions
Dust, Blowing Dust